Terminal Aerodrome Forecast
Issued by NWS Shreveport, LA

Home | Current Version | Previous Version | Text Only | Print | Product List | Glossary On
Versions: 1 2 3 4 5 6 7 8 9 10 11 12 13
000
FTUS44 KSHV 310521
TAFELD
TAF
KELD 310521Z 3106/0106 VRB03KT P6SM SCT250
     FM311200 00000KT 5SM BR SCT150 BKN250
     FM311400 21004KT P6SM BKN250
     FM311700 18004KT P6SM BKN050 BKN150
     FM312200 14006KT P6SM BKN060 BKN250
     FM010100 VRB03KT P6SM SCT060 SCT250=

USA.gov is the U.S. government's official web portal to all federal, state and local government web resources and services.